Time;durP1;ratioP1;P1;durP2;ratioP2;P2;SDS_P1;SDS_P2;PMS_P1;PMS_P2;Temp;Humidity;BMP_temperature;BMP_pressure;BME280_temperature;BME280_humidity;BME280_pressure;Samples;Min_cycle;Max_cycle;Signal;HPM_P1;HPM_P2
2022/03/08 00:04:29;;;;;;;147.80;47.20;;;;;;;1.20;73.91;101159.81;713420;1174;115048;-73
2022/03/08 00:19:31;;;;;;;108.00;33.00;;;;;;;1.04;73.91;101128.46;713387;1174;115265;-75
2022/03/08 00:34:34;;;;;;;64.33;23.83;;;;;;;0.92;74.10;101152.16;713371;1177;114950;-74
2022/03/08 00:49:38;;;;;;;82.07;27.37;;;;;;;0.71;73.34;101158.88;713439;1174;114920;-74
2022/03/08 01:04:40;;;;;;;139.00;42.57;;;;;;;0.62;74.88;101168.63;713570;1174;115990;-74
2022/03/08 01:19:42;;;;;;;62.87;24.17;;;;;;;0.60;74.05;101161.82;713710;1174;115085;-74
2022/03/08 01:34:44;;;;;;;40.35;15.05;;;;;;;0.45;74.89;101148.50;713620;1177;115322;-74
2022/03/08 01:49:48;;;;;;;39.03;15.68;;;;;;;0.43;75.43;101175.27;713346;1175;115936;-74
2022/03/08 02:04:50;;;;;;;162.90;43.00;;;;;;;0.24;75.37;101149.16;713329;1175;115630;-74
2022/03/08 02:19:56;;;;;;;28.50;13.23;;;;;;;-0.01;75.57;101155.93;713285;1175;116292;-74
2022/03/08 02:35:11;;;;;;;46.38;16.25;;;;;;;-0.08;74.68;101162.17;713266;1175;115881;-74
2022/03/08 02:50:15;;;;;;;93.93;31.93;;;;;;;-0.16;74.96;101166.69;713444;1174;115171;-74
2022/03/08 03:05:17;;;;;;;48.80;17.38;;;;;;;-0.06;75.46;101154.39;713069;1175;114705;-74
2022/03/08 03:20:22;;;;;;;60.60;22.37;;;;;;;0.11;75.41;101153.88;713453;1175;116365;-74
2022/03/08 03:35:24;;;;;;;27.33;11.90;;;;;;;0.56;76.72;101147.32;713443;1174;114422;-74
2022/03/08 03:50:26;;;;;;;22.03;10.23;;;;;;;0.75;76.68;101178.55;713291;1177;115691;-74
2022/03/08 04:05:29;;;;;;;31.55;13.10;;;;;;;1.07;77.87;101195.57;713349;1175;115239;-75
2022/03/08 04:20:31;;;;;;;28.88;12.15;;;;;;;1.33;78.11;101207.61;713440;1176;115654;-74
2022/03/08 04:35:34;;;;;;;15.98;8.20;;;;;;;1.52;77.68;101193.16;713037;1177;115631;-74
2022/03/08 04:50:36;;;;;;;30.65;12.15;;;;;;;1.78;78.06;101193.08;713376;1175;114925;-74
2022/03/08 05:05:38;;;;;;;28.70;13.33;;;;;;;1.97;78.30;101202.75;713392;1175;114967;-74
2022/03/08 05:20:40;;;;;;;63.70;19.15;;;;;;;2.15;79.06;101214.13;713248;1176;115034;-74
2022/03/08 05:35:42;;;;;;;56.13;20.98;;;;;;;2.27;78.98;101220.59;713573;1177;115290;-75
2022/03/08 05:50:44;;;;;;;47.63;16.57;;;;;;;2.50;79.41;101217.12;714132;1177;115001;-76
2022/03/08 06:05:47;;;;;;;47.80;17.35;;;;;;;2.62;80.28;101247.72;713515;1177;116597;-76
2022/03/08 06:20:49;;;;;;;46.07;16.87;;;;;;;2.80;80.42;101251.33;713555;1176;115293;-76
2022/03/08 06:35:51;;;;;;;52.00;19.17;;;;;;;3.02;81.92;101245.27;713614;1176;115171;-77
2022/03/08 06:50:54;;;;;;;54.98;23.23;;;;;;;3.21;82.15;101260.92;713966;1177;115702;-77
2022/03/08 07:05:56;;;;;;;69.87;26.13;;;;;;;3.40;82.27;101254.95;713883;1177;115187;-77
2022/03/08 07:21:00;;;;;;;109.25;36.20;;;;;;;3.61;83.20;101260.98;713649;1175;115147;-75
2022/03/08 07:36:03;;;;;;;327.53;108.03;;;;;;;4.05;82.18;101275.50;713606;1177;115149;-72
2022/03/08 07:51:06;;;;;;;96.57;38.80;;;;;;;4.06;84.16;101275.42;713832;1176;115106;-79
2022/03/08 08:06:09;;;;;;;64.63;29.93;;;;;;;4.51;84.13;101260.39;713728;1176;115741;-73
2022/03/08 08:21:11;;;;;;;118.08;35.28;;;;;;;4.56;83.54;101270.58;713535;1177;115810;-77
2022/03/08 08:36:13;;;;;;;33.40;16.23;;;;;;;5.70;82.79;101246.75;717104;1176;115134;-77
2022/03/08 08:51:16;;;;;;;23.50;10.73;;;;;;;6.69;80.34;101246.66;714160;1177;115236;-76
2022/03/08 09:06:18;;;;;;;29.65;13.33;;;;;;;7.61;78.58;101232.59;713721;1174;116247;-72
2022/03/08 09:21:21;;;;;;;18.80;10.55;;;;;;;8.20;76.91;101199.42;713883;1174;114949;-75
2022/03/08 09:36:23;;;;;;;286.50;63.45;;;;;;;7.45;75.45;101180.45;714249;1174;115200;-75
2022/03/08 09:51:26;;;;;;;73.80;26.00;;;;;;;8.65;73.11;101182.55;714530;1174;115509;-74
2022/03/08 10:06:56;;;;;;;329.57;87.03;;;;;;;9.32;71.04;101183.38;713883;1174;115579;-75
2022/03/08 10:21:58;;;;;;;39.83;21.13;;;;;;;9.93;68.81;101195.77;714273;1174;116086;-75
2022/03/08 10:37:14;;;;;;;23.63;11.40;;;;;;;10.21;68.03;101196.41;713681;1174;115494;-75
2022/03/08 10:52:18;;;;;;;23.15;10.75;;;;;;;10.68;66.54;101205.25;714067;1174;115809;-72
2022/03/08 11:07:21;;;;;;;11.03;6.50;;;;;;;11.83;64.60;101189.52;713925;1175;115405;-73
2022/03/08 11:22:24;;;;;;;10.00;5.63;;;;;;;11.14;63.72;101183.41;714392;1174;115571;-73
2022/03/08 11:37:29;;;;;;;30.05;12.45;;;;;;;11.00;61.75;101178.38;714119;1174;115686;-72
2022/03/08 11:52:35;;;;;;;50.88;18.20;;;;;;;10.49;62.74;101175.13;722305;1175;116077;-71
2022/03/08 12:07:37;;;;;;;19.13;9.50;;;;;;;10.78;62.41;101156.38;715408;1174;115749;-72
2022/03/08 12:22:40;;;;;;;22.53;9.15;;;;;;;10.73;62.19;101155.03;714808;1174;114761;-72
2022/03/08 12:37:47;;;;;;;29.50;12.53;;;;;;;10.01;62.10;101151.48;714234;1177;115884;-71
2022/03/08 12:52:56;;;;;;;19.03;9.95;;;;;;;9.90;62.17;101140.95;713255;1176;115929;-71
2022/03/08 13:07:59;;;;;;;16.65;7.65;;;;;;;10.27;61.45;101156.64;713089;1174;115415;-72
2022/03/08 13:23:13;;;;;;;7.75;3.38;;;;;;;10.14;61.04;101165.38;713592;1174;114905;-80
2022/03/08 13:38:21;;;;;;;22.83;9.83;;;;;;;9.99;60.29;101164.70;714185;1174;114089;-87
2022/03/08 13:53:25;;;;;;;96.00;36.33;;;;;;;9.86;59.61;101160.44;714883;1176;114279;-86
2022/03/08 14:08:35;;;;;;;34.03;17.13;;;;;;;9.80;58.89;101173.02;715004;1177;115673;-84
2022/03/08 14:23:42;;;;;;;22.33;9.23;;;;;;;9.43;59.71;101166.91;714337;1174;115256;-89
2022/03/08 14:38:48;;;;;;;27.67;11.27;;;;;;;9.67;59.14;101161.73;715100;1174;114110;-87
2022/03/08 14:53:50;;;;;;;31.80;12.83;;;;;;;9.93;58.24;101145.95;714978;1174;115619;-88
2022/03/08 15:08:53;;;;;;;42.45;18.45;;;;;;;19.20;55.48;101142.19;715712;1175;115821;-86
2022/03/08 15:23:57;;;;;;;43.55;18.20;;;;;;;20.27;50.38;101126.50;714496;1174;114706;-87
2022/03/08 15:39:00;;;;;;;24.68;11.38;;;;;;;15.76;50.09;101119.23;716081;1177;115743;-89
2022/03/08 15:54:03;;;;;;;19.40;9.05;;;;;;;17.24;51.14;101121.42;716686;1176;116079;-88
2022/03/08 16:09:06;;;;;;;41.90;22.10;;;;;;;13.58;49.68;101127.75;715431;1175;114834;-88
2022/03/08 16:24:09;;;;;;;25.55;14.35;;;;;;;10.80;52.19;101125.59;716083;1175;115461;-91
2022/03/08 16:39:13;;;;;;;61.03;33.03;;;;;;;9.68;54.69;101112.81;717587;1177;114492;-74
2022/03/08 16:54:20;;;;;;;81.78;25.90;;;;;;;8.94;54.95;101124.82;715640;1175;114538;-84
2022/03/08 17:09:24;;;;;;;268.00;68.83;;;;;;;8.65;57.61;101134.63;713753;1175;114340;-70
2022/03/08 17:24:26;;;;;;;115.45;43.40;;;;;;;8.50;57.62;101115.58;713492;1177;116073;-71
2022/03/08 17:39:29;;;;;;;166.37;64.07;;;;;;;8.29;58.54;101104.72;713733;1175;116071;-75
2022/03/08 17:54:33;;;;;;;179.48;63.15;;;;;;;8.00;59.91;101091.77;713454;1175;115887;-71
2022/03/08 18:09:42;;;;;;;143.25;61.00;;;;;;;7.65;59.96;101110.50;713622;1174;114635;-79
2022/03/08 18:24:44;;;;;;;226.30;76.78;;;;;;;7.50;61.16;101127.97;713642;1177;115954;-79
2022/03/08 18:39:47;;;;;;;339.00;109.70;;;;;;;7.14;61.68;101143.16;714158;1175;116101;-71
2022/03/08 18:54:50;;;;;;;323.90;108.78;;;;;;;6.59;62.31;101146.41;713863;1174;116151;-71
2022/03/08 19:09:53;;;;;;;220.23;77.97;;;;;;;6.28;63.08;101148.14;713950;1174;114664;-72
2022/03/08 19:24:55;;;;;;;154.90;54.60;;;;;;;5.89;63.32;101124.20;713684;1174;115286;-71
2022/03/08 19:39:57;;;;;;;272.90;93.05;;;;;;;5.60;64.44;101125.80;713431;1177;115749;-74
2022/03/08 19:55:00;;;;;;;147.63;57.60;;;;;;;5.53;64.60;101140.91;713447;1175;115990;-70
2022/03/08 20:10:04;;;;;;;84.17;33.53;;;;;;;5.61;65.91;101154.34;713729;1177;115745;-72
2022/03/08 20:25:07;;;;;;;72.08;30.23;;;;;;;5.77;66.18;101145.72;713413;1176;115546;-72
2022/03/08 20:40:13;;;;;;;48.18;23.70;;;;;;;5.86;66.53;101147.81;714721;1175;115665;-81
2022/03/08 20:55:17;;;;;;;56.47;26.20;;;;;;;5.73;66.27;101151.98;713135;1177;115637;-81
2022/03/08 21:10:20;;;;;;;53.10;23.50;;;;;;;5.66;67.00;101149.73;713048;1177;114710;-81
2022/03/08 21:25:30;;;;;;;53.73;23.83;;;;;;;5.81;67.26;101149.83;713449;1175;114286;-81
2022/03/08 21:40:33;;;;;;;47.27;19.50;;;;;;;5.76;67.54;101141.42;713186;1175;115128;-80
2022/03/08 21:55:36;;;;;;;62.30;27.97;;;;;;;5.76;68.02;101139.65;713913;1177;115428;-80
2022/03/08 22:10:38;;;;;;;98.57;38.90;;;;;;;5.67;68.44;101150.56;713481;1176;114754;-79
2022/03/08 22:25:41;;;;;;;60.85;29.00;;;;;;;5.66;68.89;101138.46;713632;1175;115072;-80
2022/03/08 22:40:46;;;;;;;202.85;70.05;;;;;;;5.40;69.04;101122.48;713277;1177;114126;-79
2022/03/08 22:55:49;;;;;;;140.37;53.67;;;;;;;5.32;70.35;101098.64;713476;1175;115697;-81
2022/03/08 23:10:51;;;;;;;63.43;25.98;;;;;;;5.10;69.37;101096.33;713572;1177;118611;-81
2022/03/08 23:25:53;;;;;;;261.43;83.28;;;;;;;4.57;69.46;101103.34;713273;1176;114838;-81
2022/03/08 23:40:56;;;;;;;67.95;25.55;;;;;;;4.06;69.74;101101.44;713356;1175;115406;-80
2022/03/08 23:55:58;;;;;;;300.57;78.37;;;;;;;3.77;70.20;101101.05;713378;1175;115139;-79
